Time;durP1;ratioP1;P1;durP2;ratioP2;P2;SDS_P1;SDS_P2;PMS_P1;PMS_P2;Temp;Humidity;BMP_temperature;BMP_pressure;BME280_temperature;BME280_humidity;BME280_pressure;Samples;Min_cycle;Max_cycle;Signal;HPM_P1;HPM_P2
2022/01/14 00:02:19;;;;;;;40.10;21.10;;;;;;;4.38;68.52;100093.58;221546;1274;139466;-61
2022/01/14 00:07:22;;;;;;;35.30;21.60;;;;;;;4.36;68.65;100092.20;221215;1276;139549;-58
2022/01/14 00:12:28;;;;;;;32.40;18.60;;;;;;;4.37;68.70;100097.81;221288;1276;140629;-60
2022/01/14 00:17:31;;;;;;;33.70;18.60;;;;;;;4.40;68.50;100088.43;221252;1276;140458;-60
2022/01/14 00:22:35;;;;;;;39.30;21.10;;;;;;;4.38;68.59;100079.17;221529;1276;139959;-60
2022/01/14 00:33:05;;;;;;;35.00;18.20;;;;;;;4.36;68.58;100079.74;220990;1277;140746;-61
2022/01/14 00:38:10;;;;;;;38.40;21.00;;;;;;;4.34;68.62;100083.80;221320;1276;140158;-61
2022/01/14 00:43:15;;;;;;;33.20;18.00;;;;;;;4.39;68.86;100087.40;221163;1276;139379;-61
2022/01/14 00:48:20;;;;;;;35.40;18.60;;;;;;;4.41;68.55;100097.90;221241;1275;139409;-61
2022/01/14 00:53:23;;;;;;;37.50;20.60;;;;;;;4.39;68.50;100107.95;221176;1276;140773;-59
2022/01/14 01:03:48;;;;;;;34.40;19.60;;;;;;;4.42;68.57;100102.98;221338;1275;139625;-60
2022/01/14 01:08:52;;;;;;;36.80;19.40;;;;;;;4.43;68.63;100095.23;221344;1275;141107;-62
2022/01/14 01:14:11;;;;;;;31.20;18.90;;;;;;;4.42;68.88;100068.54;221284;1276;139919;-59
2022/01/14 01:19:14;;;;;;;35.40;19.90;;;;;;;4.45;68.65;100062.52;220945;1276;140457;-59
2022/01/14 01:24:17;;;;;;;40.00;20.10;;;;;;;4.44;68.72;100040.55;221196;1277;140303;-61
2022/01/14 01:34:26;;;;;;;35.70;19.20;;;;;;;4.39;68.54;100053.84;221339;1276;139781;-61
2022/01/14 01:39:33;;;;;;;38.50;22.40;;;;;;;4.39;68.93;100047.17;221342;1274;139414;-60
2022/01/14 01:44:39;;;;;;;39.00;20.90;;;;;;;4.39;68.82;100053.67;221359;1277;138986;-61
2022/01/14 01:49:42;;;;;;;38.20;22.00;;;;;;;4.35;68.57;100061.30;221324;1274;139282;-60
2022/01/14 01:54:45;;;;;;;37.90;21.90;;;;;;;4.31;68.48;100075.10;221147;1276;139185;-60
2022/01/14 01:59:48;;;;;;;37.60;19.90;;;;;;;4.29;68.80;100079.70;221201;1276;140287;-57
2022/01/14 02:04:51;;;;;;;36.80;20.30;;;;;;;4.34;68.71;100070.65;221418;1276;141922;-59
2022/01/14 02:09:54;;;;;;;37.90;21.10;;;;;;;4.40;68.92;100055.92;221300;1276;139385;-60
2022/01/14 02:15:10;;;;;;;34.10;19.10;;;;;;;4.39;68.60;100046.98;221325;1276;140201;-60
2022/01/14 02:25:35;;;;;;;36.40;21.20;;;;;;;4.33;68.75;100016.89;221417;1274;125404;-62
2022/01/14 02:30:40;;;;;;;37.10;20.80;;;;;;;4.37;68.88;100008.04;221195;1276;139819;-61
2022/01/14 02:35:45;;;;;;;36.30;20.90;;;;;;;4.37;68.59;100012.79;221297;1276;139749;-58
2022/01/14 02:40:49;;;;;;;;;;;;;;;4.32;68.56;100013.25;221344;1276;140471;-60
2022/01/14 02:45:55;;;;;;;37.80;21.50;;;;;;;4.30;68.47;100004.14;221453;1274;125343;-59
2022/01/14 02:51:01;;;;;;;36.50;22.10;;;;;;;4.27;68.57;99992.06;221268;1276;139008;-61
2022/01/14 02:56:19;;;;;;;38.60;21.40;;;;;;;4.26;68.49;99999.64;221373;1275;140204;-61
2022/01/14 03:01:24;;;;;;;39.10;21.60;;;;;;;4.31;68.62;99998.33;221350;1276;139989;-60
2022/01/14 03:06:28;;;;;;;37.50;21.70;;;;;;;4.34;68.76;99996.16;221181;1275;138912;-59
2022/01/14 03:11:37;;;;;;;35.30;21.40;;;;;;;4.41;68.73;99992.85;221289;1275;138692;-61
2022/01/14 03:16:42;;;;;;;33.40;21.60;;;;;;;4.40;68.45;99984.43;221422;1275;140107;-61
2022/01/14 03:21:45;;;;;;;39.70;22.50;;;;;;;4.29;68.27;99982.55;221396;1275;139080;-60
2022/01/14 03:26:54;;;;;;;26.90;16.20;;;;;;;4.23;68.39;99990.41;221211;1276;139304;-61
2022/01/14 03:31:57;;;;;;;38.80;22.60;;;;;;;4.13;68.22;99985.16;221348;1276;140559;-60
2022/01/14 03:37:00;;;;;;;29.50;16.00;;;;;;;4.12;68.86;99970.98;221338;1276;139298;-61
2022/01/14 03:42:05;;;;;;;32.50;21.40;;;;;;;4.17;68.93;99964.73;220869;1277;139458;-61
2022/01/14 03:47:08;;;;;;;30.10;17.80;;;;;;;4.14;68.64;99954.07;221474;1276;138935;-60
2022/01/14 03:52:11;;;;;;;30.80;19.60;;;;;;;4.07;68.41;99939.30;221264;1276;246685;-58
2022/01/14 03:57:14;;;;;;;36.70;21.10;;;;;;;4.00;68.74;99936.27;221382;1276;140249;-61
2022/01/14 04:02:17;;;;;;;34.50;20.00;;;;;;;3.95;68.71;99938.48;221377;1275;139127;-59
2022/01/14 04:07:20;;;;;;;34.50;19.00;;;;;;;3.91;68.71;99933.84;221266;1275;169086;-61
2022/01/14 04:12:42;;;;;;;33.30;19.60;;;;;;;3.90;68.77;99920.86;221351;1275;139970;-58
2022/01/14 04:17:46;;;;;;;34.70;21.40;;;;;;;3.87;68.78;99920.02;221319;1276;138838;-62
2022/01/14 04:22:49;;;;;;;34.90;21.30;;;;;;;3.88;68.87;99914.59;221473;1275;139742;-61
2022/01/14 04:27:52;;;;;;;29.70;18.30;;;;;;;3.88;68.88;99906.86;221378;1275;138486;-60
2022/01/14 04:32:55;;;;;;;31.00;18.90;;;;;;;3.88;68.98;99903.86;221312;1275;139361;-61
2022/01/14 04:37:58;;;;;;;28.60;16.90;;;;;;;3.89;68.98;99894.73;221358;1276;139756;-62
2022/01/14 04:43:02;;;;;;;31.90;19.80;;;;;;;3.91;68.88;99896.80;221401;1275;139117;-59
2022/01/14 04:48:09;;;;;;;32.30;18.20;;;;;;;3.89;68.97;99895.59;221426;1274;139664;-60
2022/01/14 04:53:13;;;;;;;33.40;20.20;;;;;;;3.85;68.93;99895.52;221355;1275;140424;-62
2022/01/14 04:58:16;;;;;;;35.50;22.40;;;;;;;3.78;68.71;99887.05;221414;1276;139138;-60
2022/01/14 05:03:19;;;;;;;33.90;18.80;;;;;;;3.74;68.91;99881.34;221330;1275;142258;-60
2022/01/14 05:08:26;;;;;;;33.00;18.70;;;;;;;3.74;69.20;99864.51;221373;1275;140376;-59
2022/01/14 05:13:29;;;;;;;33.70;19.90;;;;;;;3.74;69.02;99862.91;221216;1275;139014;-61
2022/01/14 05:18:32;;;;;;;29.80;18.00;;;;;;;3.74;69.13;99868.89;221350;1276;138751;-60
2022/01/14 05:23:35;;;;;;;41.10;21.40;;;;;;;3.69;68.74;99863.57;221413;1275;139546;-60
2022/01/14 05:28:38;;;;;;;34.10;19.10;;;;;;;3.68;69.06;99854.12;221483;1276;139516;-61
2022/01/14 05:33:42;;;;;;;37.00;21.60;;;;;;;3.67;69.08;99846.05;221510;1275;139790;-59
2022/01/14 05:38:45;;;;;;;38.70;21.60;;;;;;;3.66;69.17;99837.83;221353;1275;139518;-60
2022/01/14 05:43:47;;;;;;;40.10;24.20;;;;;;;3.62;69.09;99840.91;221338;1276;139153;-59
2022/01/14 05:48:51;;;;;;;32.50;19.60;;;;;;;3.62;69.10;99838.44;221194;1276;140654;-61
2022/01/14 05:53:54;;;;;;;34.90;21.30;;;;;;;3.68;69.28;99835.48;221290;1276;139816;-62
2022/01/14 05:58:57;;;;;;;40.30;23.60;;;;;;;3.67;69.11;99829.03;221427;1274;139651;-61
2022/01/14 06:04:01;;;;;;;41.00;23.80;;;;;;;3.65;69.18;99827.30;221124;1274;139783;-61
2022/01/14 06:09:05;;;;;;;36.90;22.00;;;;;;;3.65;69.24;99819.78;221347;1276;139522;-61
2022/01/14 06:14:08;;;;;;;39.80;24.40;;;;;;;3.66;69.07;99805.54;221333;1275;140129;-59
2022/01/14 06:19:11;;;;;;;38.20;22.80;;;;;;;3.68;69.40;99824.97;221379;1276;139684;-61
2022/01/14 06:24:14;;;;;;;42.30;25.10;;;;;;;3.67;69.14;99817.98;221242;1275;138754;-61
2022/01/14 06:29:17;;;;;;;32.90;18.80;;;;;;;3.63;69.00;99818.95;221240;1276;140364;-61
2022/01/14 06:34:20;;;;;;;41.70;23.40;;;;;;;3.63;69.42;99824.73;221440;1275;143150;-61
2022/01/14 06:39:23;;;;;;;48.20;26.40;;;;;;;3.66;69.22;99838.87;221401;1275;139806;-59
2022/01/14 06:44:27;;;;;;;40.30;22.90;;;;;;;3.65;69.55;99851.55;221348;1275;140488;-62
2022/01/14 06:49:29;;;;;;;47.00;26.70;;;;;;;3.63;69.63;99838.25;221097;1275;139250;-63
2022/01/14 06:54:32;;;;;;;38.30;21.60;;;;;;;3.61;69.59;99828.79;221173;1276;139566;-63
2022/01/14 06:59:36;;;;;;;48.60;26.40;;;;;;;3.57;69.57;99838.01;221319;1276;140091;-63
2022/01/14 07:04:39;;;;;;;50.00;28.40;;;;;;;3.55;69.57;99855.06;221414;1276;140355;-60
2022/01/14 07:09:57;;;;;;;57.00;31.00;;;;;;;3.61;69.83;99851.44;221285;1276;139364;-64
2022/01/14 07:15:02;;;;;;;51.40;28.80;;;;;;;3.67;69.95;99845.00;221314;1276;139923;-62
2022/01/14 07:20:10;;;;;;;41.00;23.80;;;;;;;3.70;69.83;99830.89;221388;1276;139814;-61
2022/01/14 07:25:13;;;;;;;43.00;22.60;;;;;;;3.61;69.55;99828.45;221324;1276;139526;-63
2022/01/14 07:30:17;;;;;;;34.40;18.70;;;;;;;3.55;69.54;99827.53;221470;1274;139475;-62
2022/01/14 07:35:20;;;;;;;32.70;18.90;;;;;;;3.52;69.56;99836.17;221376;1275;139891;-62
2022/01/14 07:40:23;;;;;;;34.40;18.50;;;;;;;3.51;69.54;99841.98;221550;1275;139760;-63
2022/01/14 07:45:26;;;;;;;42.20;21.70;;;;;;;3.51;69.55;99859.89;221430;1275;139493;-61
2022/01/14 07:50:29;;;;;;;39.20;21.30;;;;;;;3.51;69.53;99841.64;221231;1276;139591;-61
2022/01/14 07:55:32;;;;;;;41.40;23.90;;;;;;;3.51;69.63;99826.57;221143;1276;140747;-63
2022/01/14 08:00:36;;;;;;;52.30;25.90;;;;;;;3.46;69.58;99815.96;221349;1277;139640;-63
2022/01/14 08:05:39;;;;;;;59.30;32.20;;;;;;;3.40;69.86;99833.63;221323;1275;139584;-60
2022/01/14 08:10:42;;;;;;;53.30;27.80;;;;;;;3.38;69.93;99837.52;221357;1276;139819;-61
2022/01/14 08:15:45;;;;;;;44.60;24.30;;;;;;;3.40;69.85;99832.22;221357;1275;141614;-62
2022/01/14 08:20:48;;;;;;;35.90;20.80;;;;;;;3.42;69.85;99832.35;221358;1275;140570;-59
2022/01/14 08:25:53;;;;;;;39.10;22.30;;;;;;;3.45;69.90;99813.52;221328;1276;139728;-62
2022/01/14 08:30:56;;;;;;;33.90;19.80;;;;;;;3.44;70.05;99790.04;221293;1276;139822;-63
2022/01/14 08:36:00;;;;;;;30.10;16.70;;;;;;;3.43;69.93;99764.28;221101;1276;139202;-60
2022/01/14 08:41:04;;;;;;;29.00;18.10;;;;;;;3.44;69.89;99747.25;221451;1276;140006;-63
2022/01/14 08:46:08;;;;;;;36.40;19.60;;;;;;;3.44;69.85;99757.77;221356;1275;140459;-61
2022/01/14 08:51:11;;;;;;;37.10;20.90;;;;;;;3.44;69.85;99752.87;221311;1276;139405;-62
2022/01/14 08:56:13;;;;;;;40.60;22.30;;;;;;;3.51;69.89;99757.08;221276;1276;139658;-57
2022/01/14 09:01:16;;;;;;;37.80;20.60;;;;;;;3.58;69.83;99762.73;221312;1275;140021;-62
2022/01/14 09:06:20;;;;;;;38.00;21.70;;;;;;;3.60;69.94;99756.91;221197;1277;140420;-60
2022/01/14 09:11:23;;;;;;;38.80;21.10;;;;;;;3.57;69.82;99765.90;221365;1276;139170;-61
2022/01/14 09:16:26;;;;;;;35.60;20.40;;;;;;;3.60;69.77;99750.77;221350;1275;140296;-61
2022/01/14 09:21:29;;;;;;;33.50;18.60;;;;;;;3.64;69.95;99748.91;221420;1275;140338;-61
2022/01/14 09:26:34;;;;;;;33.70;18.90;;;;;;;3.67;69.88;99741.65;221292;1276;139272;-62
2022/01/14 09:31:37;;;;;;;37.20;20.10;;;;;;;3.64;70.11;99743.82;221329;1276;139212;-60
2022/01/14 09:36:40;;;;;;;28.70;17.20;;;;;;;3.61;69.82;99738.27;221228;1276;139250;-61
2022/01/14 09:41:43;;;;;;;25.00;14.20;;;;;;;3.59;69.90;99731.13;221471;1276;139385;-62
2022/01/14 09:46:50;;;;;;;29.90;17.10;;;;;;;3.57;69.94;99724.67;221551;1276;140971;-62
2022/01/14 09:51:53;;;;;;;23.50;13.60;;;;;;;3.59;70.30;99718.85;220856;1276;138814;-58
2022/01/14 09:56:56;;;;;;;26.90;16.40;;;;;;;3.57;70.09;99716.77;221023;1276;139124;-61
2022/01/14 10:02:00;;;;;;;24.50;14.30;;;;;;;3.61;70.34;99716.35;221394;1277;140323;-62
2022/01/14 10:07:04;;;;;;;24.80;15.80;;;;;;;3.64;70.22;99722.94;221491;1277;139100;-61
2022/01/14 10:12:11;;;;;;;26.20;14.70;;;;;;;3.68;70.36;99714.08;221394;1274;140298;-61
2022/01/14 10:17:14;;;;;;;28.20;14.70;;;;;;;3.69;70.51;99706.32;221356;1277;140196;-60
2022/01/14 10:22:24;;;;;;;21.60;13.40;;;;;;;3.75;70.60;99694.45;221499;1274;139763;-62
2022/01/14 10:27:29;;;;;;;17.50;10.90;;;;;;;3.82;70.60;99684.09;220931;1277;140431;-60
2022/01/14 10:32:34;;;;;;;;;;;;;;;3.88;70.65;99683.42;221297;1276;140008;-60
2022/01/14 10:37:38;;;;;;;25.40;15.70;;;;;;;3.87;70.63;99693.09;221352;1276;125187;-62
2022/01/14 10:42:41;;;;;;;19.40;11.50;;;;;;;3.91;70.75;99677.55;221272;1275;139670;-60
2022/01/14 10:48:06;;;;;;;19.20;11.30;;;;;;;3.96;70.60;99669.35;221077;1277;139923;-62
2022/01/14 10:53:10;;;;;;;22.10;12.20;;;;;;;3.98;70.47;99654.55;221404;1277;139440;-62
2022/01/14 10:58:24;;;;;;;20.30;11.80;;;;;;;4.01;70.62;99646.75;221343;1276;139640;-61
2022/01/14 11:03:38;;;;;;;23.50;14.20;;;;;;;4.03;70.62;99638.44;221453;1276;139792;-62
2022/01/14 11:08:42;;;;;;;26.40;15.70;;;;;;;4.16;70.71;99622.84;221360;1276;139772;-60
2022/01/14 11:13:45;;;;;;;26.70;15.30;;;;;;;4.24;70.45;99611.38;221217;1277;139531;-58
2022/01/14 11:18:49;;;;;;;31.60;18.30;;;;;;;4.24;70.59;99590.48;221251;1277;139582;-60
2022/01/14 11:23:53;;;;;;;34.10;18.30;;;;;;;4.20;70.13;99597.25;221324;1276;140151;-59
2022/01/14 11:29:04;;;;;;;29.30;18.00;;;;;;;4.14;70.21;99594.60;221449;1277;139641;-60
2022/01/14 11:34:30;;;;;;;35.00;18.00;;;;;;;4.13;70.11;99579.18;221237;1276;141445;-59
2022/01/14 11:39:38;;;;;;;32.80;18.70;;;;;;;4.10;70.13;99570.85;221223;1276;139829;-62
2022/01/14 11:44:44;;;;;;;32.20;18.10;;;;;;;4.09;69.99;99545.60;221399;1275;139497;-60
2022/01/14 11:49:47;;;;;;;34.50;19.00;;;;;;;4.06;70.38;99551.83;221300;1275;139961;-60
2022/01/14 11:54:50;;;;;;;35.60;19.60;;;;;;;4.10;70.50;99549.08;221268;1277;139642;-58
2022/01/14 11:59:53;;;;;;;33.70;19.00;;;;;;;4.10;70.50;99533.99;221048;1276;140436;-59
2022/01/14 12:05:09;;;;;;;34.40;17.60;;;;;;;4.08;70.40;99530.88;221203;1276;139131;-59
2022/01/14 12:10:12;;;;;;;25.40;14.90;;;;;;;4.03;70.30;99517.31;221413;1275;140028;-60
2022/01/14 12:15:59;;;;;;;28.10;16.70;;;;;;;4.03;70.56;99514.84;221353;1275;139642;-61
2022/01/14 12:21:02;;;;;;;31.00;19.40;;;;;;;4.06;70.31;99504.25;221345;1276;139220;-61
2022/01/14 12:26:17;;;;;;;33.00;19.80;;;;;;;4.07;70.57;99515.80;221423;1274;142057;-59
2022/01/14 12:31:20;;;;;;;30.80;19.00;;;;;;;4.06;70.33;99507.77;221315;1276;140074;-63
2022/01/14 12:36:23;;;;;;;28.20;16.40;;;;;;;4.05;70.35;99495.13;221205;1276;140921;-61
2022/01/14 12:41:26;;;;;;;32.80;19.70;;;;;;;4.07;70.52;99497.89;221240;1276;139687;-60
2022/01/14 12:52:09;;;;;;;27.60;16.00;;;;;;;4.13;70.38;99508.96;220832;1276;140185;-60
2022/01/14 12:57:16;;;;;;;;;;;;;;;4.14;70.39;99522.60;221329;1275;139678;-62
2022/01/14 13:02:25;;;;;;;29.40;17.20;;;;;;;4.19;70.57;99538.10;221409;1276;127333;-58
2022/01/14 13:07:29;;;;;;;28.80;17.10;;;;;;;4.22;70.74;99551.73;221383;1276;141509;-61
2022/01/14 13:12:38;;;;;;;31.00;18.60;;;;;;;4.28;70.46;99562.64;221309;1275;140501;-63
2022/01/14 13:17:53;;;;;;;33.00;17.20;;;;;;;4.32;70.79;99573.23;221314;1276;144303;-58
2022/01/14 13:22:56;;;;;;;34.90;19.20;;;;;;;4.36;70.58;99565.40;221392;1276;139821;-60
2022/01/14 13:28:03;;;;;;;30.00;18.50;;;;;;;4.38;70.31;99569.38;221373;1277;138866;-63
2022/01/14 13:33:13;;;;;;;33.20;18.90;;;;;;;4.42;70.21;99576.99;221330;1276;140377;-59
2022/01/14 13:38:19;;;;;;;32.90;19.50;;;;;;;4.45;70.40;99571.61;221260;1275;140355;-62
2022/01/14 13:43:35;;;;;;;31.20;19.60;;;;;;;4.50;70.26;99577.27;221286;1276;139111;-63
2022/01/14 13:48:48;;;;;;;38.20;19.80;;;;;;;4.53;70.47;99582.29;221238;1275;138826;-60
2022/01/14 13:53:52;;;;;;;31.40;18.80;;;;;;;4.54;70.27;99575.95;221267;1276;140186;-62
2022/01/14 13:58:59;;;;;;;29.60;18.80;;;;;;;4.55;70.26;99567.47;221325;1276;140331;-62
2022/01/14 14:04:11;;;;;;;30.40;18.50;;;;;;;4.54;70.54;99565.38;221272;1276;139937;-61
2022/01/14 14:09:33;;;;;;;30.90;17.30;;;;;;;4.56;70.52;99569.40;221287;1276;140235;-60
2022/01/14 14:19:58;;;;;;;29.60;18.40;;;;;;;4.58;70.75;99573.19;221269;1276;139309;-62
2022/01/14 14:25:10;;;;;;;31.80;17.90;;;;;;;4.64;70.81;99556.14;221383;1274;139849;-64
2022/01/14 14:30:15;;;;;;;26.00;15.40;;;;;;;4.63;70.88;99565.32;221080;1276;139256;-62
2022/01/14 14:35:19;;;;;;;25.60;15.90;;;;;;;4.63;71.06;99561.26;221245;1277;140022;-63
2022/01/14 14:40:29;;;;;;;27.60;16.20;;;;;;;4.64;71.00;99562.81;221267;1276;140146;-59
2022/01/14 14:45:33;;;;;;;24.50;15.50;;;;;;;4.68;71.05;99566.04;221259;1276;139771;-62
2022/01/14 14:50:36;;;;;;;28.30;16.90;;;;;;;4.70;71.25;99561.92;221124;1276;138819;-62
2022/01/14 14:55:40;;;;;;;27.50;16.30;;;;;;;4.66;71.14;99569.80;221223;1276;139789;-62
2022/01/14 15:00:43;;;;;;;21.40;14.30;;;;;;;4.67;71.11;99567.46;221357;1275;139623;-63
2022/01/14 15:05:47;;;;;;;25.40;14.30;;;;;;;4.71;71.26;99580.53;221110;1276;140687;-59
2022/01/14 15:10:51;;;;;;;22.70;13.80;;;;;;;4.73;71.14;99580.11;221317;1276;138875;-61
2022/01/14 15:21:03;;;;;;;22.10;12.60;;;;;;;4.70;71.34;99603.23;221424;1275;140151;-62
2022/01/14 15:26:06;;;;;;;23.30;14.70;;;;;;;4.70;71.36;99596.58;221332;1276;139292;-60
2022/01/14 15:31:09;;;;;;;21.50;13.90;;;;;;;4.69;71.45;99601.67;221314;1276;139836;-62
2022/01/14 15:36:12;;;;;;;23.70;12.10;;;;;;;4.67;71.32;99590.33;221007;1276;139698;-62
2022/01/14 15:41:17;;;;;;;19.40;12.20;;;;;;;4.66;71.52;99594.77;221458;1275;141211;-61
2022/01/14 15:46:20;;;;;;;17.30;11.70;;;;;;;4.65;71.31;99608.30;221250;1276;139565;-61
2022/01/14 15:51:25;;;;;;;18.80;12.20;;;;;;;4.62;71.44;99611.18;221417;1276;139899;-64
2022/01/14 15:56:28;;;;;;;17.90;12.40;;;;;;;4.62;71.37;99614.02;221236;1276;139572;-59
2022/01/14 16:01:31;;;;;;;20.90;12.20;;;;;;;4.66;71.74;99609.33;221275;1276;139628;-62
2022/01/14 16:06:34;;;;;;;20.40;12.20;;;;;;;4.72;71.89;99611.08;221189;1276;160637;-62
2022/01/14 16:11:38;;;;;;;20.30;13.20;;;;;;;4.75;71.78;99617.67;221223;1276;139630;-62
2022/01/14 16:16:41;;;;;;;23.10;13.30;;;;;;;4.80;71.68;99621.77;221346;1276;138706;-62
2022/01/14 16:21:45;;;;;;;18.30;12.40;;;;;;;4.85;71.54;99610.17;221447;1276;139207;-62
2022/01/14 16:26:48;;;;;;;19.00;12.50;;;;;;;4.87;71.58;99624.02;221301;1276;140396;-59
2022/01/14 16:31:51;;;;;;;22.20;14.40;;;;;;;4.84;71.81;99621.47;221103;1276;140726;-61
2022/01/14 16:36:54;;;;;;;17.60;10.90;;;;;;;4.80;71.84;99630.02;221012;1276;141047;-62
2022/01/14 16:41:57;;;;;;;17.10;11.40;;;;;;;4.74;71.48;99634.73;221253;1276;141239;-62
2022/01/14 16:47:03;;;;;;;18.00;11.50;;;;;;;4.75;71.78;99631.05;221497;1276;140559;-62
2022/01/14 16:52:08;;;;;;;19.50;11.10;;;;;;;4.78;71.86;99628.67;220996;1276;140963;-63
2022/01/14 16:57:12;;;;;;;20.90;13.20;;;;;;;4.80;71.57;99634.93;221363;1275;139833;-63
2022/01/14 17:02:16;;;;;;;18.50;11.40;;;;;;;4.85;71.88;99635.48;221329;1276;139474;-62
2022/01/14 17:07:19;;;;;;;18.90;11.50;;;;;;;4.86;71.50;99635.30;221300;1275;139519;-64
2022/01/14 17:12:26;;;;;;;16.70;11.30;;;;;;;4.88;71.62;99637.86;221297;1275;140296;-63
2022/01/14 17:17:30;;;;;;;18.30;11.80;;;;;;;4.88;71.72;99637.18;221292;1275;138998;-62
2022/01/14 17:22:33;;;;;;;18.70;11.60;;;;;;;4.83;71.57;99649.09;221399;1276;138968;-64
2022/01/14 17:27:36;;;;;;;17.50;10.80;;;;;;;4.85;71.92;99648.15;221279;1275;139824;-64
2022/01/14 17:32:39;;;;;;;17.60;11.90;;;;;;;4.88;71.59;99651.05;221194;1275;139585;-63
2022/01/14 17:37:42;;;;;;;17.60;11.00;;;;;;;4.89;71.59;99656.13;221131;1274;138994;-63
2022/01/14 17:42:47;;;;;;;16.70;9.90;;;;;;;4.92;71.77;99651.13;221371;1276;140243;-65
2022/01/14 17:47:50;;;;;;;13.80;9.40;;;;;;;4.97;71.61;99652.36;221301;1274;140209;-61
2022/01/14 17:52:53;;;;;;;14.00;9.40;;;;;;;5.03;71.61;99650.80;221340;1274;139037;-64
2022/01/14 17:57:56;;;;;;;16.30;10.20;;;;;;;5.05;71.69;99657.06;221283;1274;138904;-63
2022/01/14 18:03:19;;;;;;;19.50;11.00;;;;;;;5.07;71.53;99652.08;221304;1275;138707;-63
2022/01/14 18:08:23;;;;;;;15.90;10.00;;;;;;;5.13;71.53;99654.36;221215;1275;139981;-64
2022/01/14 18:13:37;;;;;;;16.10;10.30;;;;;;;5.15;71.54;99658.88;221121;1276;141159;-64
2022/01/14 18:18:40;;;;;;;16.90;10.80;;;;;;;5.16;71.80;99662.02;220998;1276;139458;-63
2022/01/14 18:23:43;;;;;;;16.90;10.70;;;;;;;5.13;71.39;99670.36;221295;1275;138806;-65
2022/01/14 18:28:47;;;;;;;15.40;10.00;;;;;;;5.09;71.48;99668.02;221257;1276;139929;-63
2022/01/14 18:33:51;;;;;;;16.40;10.20;;;;;;;5.07;71.59;99661.59;221232;1274;139608;-63
2022/01/14 18:38:55;;;;;;;18.60;11.60;;;;;;;5.07;71.94;99662.63;221205;1274;139473;-62
2022/01/14 18:43:58;;;;;;;19.30;11.10;;;;;;;5.11;71.75;99654.23;221384;1274;139318;-64
2022/01/14 18:49:06;;;;;;;19.00;10.60;;;;;;;5.12;71.83;99654.04;221313;1274;141179;-62
2022/01/14 18:54:11;;;;;;;15.90;10.60;;;;;;;5.16;71.94;99669.03;221166;1276;141509;-65
2022/01/14 18:59:14;;;;;;;18.00;11.60;;;;;;;5.21;71.62;99679.64;221410;1275;140410;-62
2022/01/14 19:04:17;;;;;;;16.60;10.60;;;;;;;5.20;71.61;99684.23;221507;1276;140089;-64
2022/01/14 19:09:20;;;;;;;13.50;8.40;;;;;;;5.16;71.78;99694.36;221321;1274;138859;-61
2022/01/14 19:14:23;;;;;;;12.20;7.90;;;;;;;5.15;71.57;99702.66;221178;1275;139833;-64
2022/01/14 19:19:26;;;;;;;14.30;9.20;;;;;;;5.17;71.66;99705.60;221238;1275;140026;-63
2022/01/14 19:24:30;;;;;;;14.70;9.30;;;;;;;5.20;71.81;99705.52;221163;1277;138744;-65
2022/01/14 19:29:33;;;;;;;14.80;8.60;;;;;;;5.19;71.35;99701.14;221256;1276;139030;-65
2022/01/14 19:34:37;;;;;;;10.30;6.00;;;;;;;5.22;71.60;99714.61;221382;1276;140038;-61
2022/01/14 19:39:41;;;;;;;10.90;6.50;;;;;;;5.25;71.50;99721.54;221112;1276;139438;-64
2022/01/14 19:44:44;;;;;;;12.30;6.80;;;;;;;5.25;71.27;99728.05;221366;1276;139610;-64
2022/01/14 19:49:47;;;;;;;11.40;6.00;;;;;;;5.24;71.21;99749.04;221481;1275;139764;-63
2022/01/14 19:54:50;;;;;;;9.70;5.60;;;;;;;5.21;71.31;99752.45;221345;1276;138929;-65
2022/01/14 19:59:54;;;;;;;12.00;5.20;;;;;;;5.23;70.79;99753.45;221327;1276;139485;-60
2022/01/14 20:04:57;;;;;;;9.60;5.00;;;;;;;5.28;71.09;99756.84;221286;1276;139192;-65
2022/01/14 20:10:00;;;;;;;10.80;5.10;;;;;;;5.35;70.53;99768.06;221330;1276;139994;-65
2022/01/14 20:15:03;;;;;;;11.10;5.00;;;;;;;5.33;70.26;99777.98;221319;1274;138837;-64
2022/01/14 20:20:07;;;;;;;11.40;4.70;;;;;;;5.24;69.90;99788.96;221178;1276;138881;-60
2022/01/14 20:25:13;;;;;;;11.50;5.50;;;;;;;5.18;69.78;99790.02;220977;1277;141630;-63
2022/01/14 20:30:16;;;;;;;11.70;5.40;;;;;;;5.13;69.97;99794.52;220888;1277;139635;-65
2022/01/14 20:35:20;;;;;;;9.30;4.20;;;;;;;5.15;69.21;99803.27;221218;1276;139688;-64
2022/01/14 20:40:23;;;;;;;15.40;5.30;;;;;;;5.14;69.67;99798.55;221211;1276;139102;-63
2022/01/14 20:45:27;;;;;;;15.20;6.10;;;;;;;5.15;69.28;99799.23;221164;1276;140253;-62
2022/01/14 20:50:33;;;;;;;12.30;5.60;;;;;;;5.12;69.29;99800.89;221312;1276;139171;-64
2022/01/14 20:55:37;;;;;;;13.30;5.60;;;;;;;5.10;69.30;99805.16;221354;1276;139131;-64
2022/01/14 21:00:40;;;;;;;13.40;6.10;;;;;;;5.05;69.32;99807.08;221341;1276;138825;-60
2022/01/14 21:05:43;;;;;;;14.80;5.90;;;;;;;5.00;69.06;99805.45;221319;1276;139187;-65
2022/01/14 21:10:46;;;;;;;13.70;6.10;;;;;;;5.05;69.38;99805.84;221364;1276;139083;-63
2022/01/14 21:15:49;;;;;;;14.50;6.00;;;;;;;5.03;69.03;99804.65;221206;1276;140951;-65
2022/01/14 21:21:01;;;;;;;15.30;6.50;;;;;;;5.00;69.03;99819.52;221284;1276;141000;-64
2022/01/14 21:26:05;;;;;;;15.50;6.60;;;;;;;4.94;69.19;99818.77;221410;1276;152691;-63
2022/01/14 21:31:10;;;;;;;13.00;6.20;;;;;;;4.92;68.98;99829.92;221308;1276;139195;-60
2022/01/14 21:36:13;;;;;;;16.20;6.10;;;;;;;4.89;68.94;99834.73;221076;1276;139050;-67
2022/01/14 21:41:17;;;;;;;12.70;5.90;;;;;;;4.85;68.64;99829.94;221395;1274;138608;-66
2022/01/14 21:46:21;;;;;;;15.50;5.80;;;;;;;4.85;68.49;99834.67;221137;1277;142969;-61
2022/01/14 21:51:25;;;;;;;16.20;5.50;;;;;;;4.86;68.45;99834.48;221324;1277;139702;-62
2022/01/14 21:56:28;;;;;;;15.80;5.20;;;;;;;4.85;68.64;99837.84;221312;1276;140669;-65
2022/01/14 22:01:31;;;;;;;17.00;5.40;;;;;;;4.86;68.35;99845.38;221092;1276;138754;-66
2022/01/14 22:06:34;;;;;;;10.60;4.90;;;;;;;4.82;68.32;99850.77;221199;1276;138946;-61
2022/01/14 22:11:38;;;;;;;18.60;5.90;;;;;;;4.77;68.29;99851.95;221144;1276;138716;-66
2022/01/14 22:16:41;;;;;;;14.80;6.50;;;;;;;4.75;68.29;99852.50;221315;1274;138485;-64
2022/01/14 22:21:44;;;;;;;13.10;5.90;;;;;;;4.75;68.20;99850.05;221165;1276;138962;-65
2022/01/14 22:26:47;;;;;;;14.60;5.20;;;;;;;4.82;68.16;99855.34;221359;1276;139220;-61
2022/01/14 22:31:50;;;;;;;16.50;5.80;;;;;;;4.82;68.18;99857.79;221376;1277;139182;-66
2022/01/14 22:36:53;;;;;;;15.60;5.60;;;;;;;4.76;67.84;99857.05;221266;1276;141192;-65
2022/01/14 22:41:57;;;;;;;14.00;6.30;;;;;;;4.73;67.79;99854.33;221405;1276;139367;-62
2022/01/14 22:47:00;;;;;;;19.40;5.90;;;;;;;4.63;67.76;99858.61;221485;1276;139463;-64
2022/01/14 22:52:04;;;;;;;18.60;6.30;;;;;;;4.56;67.53;99865.29;221386;1276;138643;-64
2022/01/14 22:57:07;;;;;;;16.10;6.40;;;;;;;4.50;67.70;99864.55;221274;1276;139797;-66
2022/01/14 23:02:10;;;;;;;17.70;6.50;;;;;;;4.46;67.67;99872.21;221332;1276;139294;-63
2022/01/14 23:07:13;;;;;;;17.60;6.40;;;;;;;4.42;67.71;99876.16;221305;1276;138944;-62
2022/01/14 23:12:19;;;;;;;20.30;6.00;;;;;;;4.38;67.76;99876.45;221238;1276;138517;-62
2022/01/14 23:17:22;;;;;;;18.30;5.60;;;;;;;4.33;67.72;99876.91;221453;1276;139085;-64
2022/01/14 23:22:25;;;;;;;16.20;5.50;;;;;;;4.26;67.72;99881.27;221349;1276;140327;-62
2022/01/14 23:27:28;;;;;;;14.60;5.60;;;;;;;4.19;67.49;99873.54;221151;1276;138995;-62
2022/01/14 23:32:31;;;;;;;20.40;7.10;;;;;;;4.12;67.33;99883.89;221314;1276;139893;-63
2022/01/14 23:37:35;;;;;;;16.80;5.00;;;;;;;4.10;67.74;99879.53;221228;1276;139485;-64
2022/01/14 23:42:41;;;;;;;14.90;5.50;;;;;;;4.06;67.79;99883.30;221075;1277;139388;-62
2022/01/14 23:47:45;;;;;;;14.20;4.70;;;;;;;4.01;67.67;99882.53;221332;1276;139083;-65